createdAt,value
2022-09-23T00:00:34.661Z,8.38
2022-09-23T00:03:01.743Z,8.33
2022-09-23T00:05:29.949Z,8.29
2022-09-23T00:07:57.144Z,8.27
2022-09-23T00:10:25.502Z,8.26
2022-09-23T00:12:53.055Z,8.22
2022-09-23T00:15:21.483Z,8.19
2022-09-23T00:17:48.399Z,8.14
2022-09-23T00:20:15.235Z,8.14
2022-09-23T00:22:42.026Z,8.16
2022-09-23T00:25:10.333Z,8.11
2022-09-23T00:27:37.972Z,8.10
2022-09-23T00:30:07.233Z,8.11
2022-09-23T00:32:36.595Z,8.09
2022-09-23T00:35:04.244Z,8.11
2022-09-23T00:37:31.535Z,8.10
2022-09-23T00:40:00.838Z,8.11
2022-09-23T00:42:27.683Z,8.13
2022-09-23T00:44:56.078Z,8.16
2022-09-23T00:47:29.522Z,8.21
2022-09-23T00:50:03.521Z,8.20
2022-09-23T00:52:32.223Z,8.16
2022-09-23T00:55:02.562Z,8.11
2022-09-23T00:57:31.276Z,8.23
2022-09-23T00:59:58.385Z,8.27
2022-09-23T01:02:26.202Z,8.29
2022-09-23T01:04:53.136Z,8.29
2022-09-23T01:07:21.913Z,8.30
2022-09-23T01:09:49.737Z,8.29
2022-09-23T01:12:34.477Z,8.30
2022-09-23T01:15:11.531Z,8.27
2022-09-23T01:21:37.594Z,8.20
2022-09-23T01:24:26.399Z,8.17
2022-09-23T01:27:00.980Z,8.14
2022-09-23T01:29:53.594Z,8.13
2022-09-23T01:32:32.180Z,8.10
2022-09-23T01:35:07.319Z,8.13
2022-09-23T01:37:41.043Z,8.10
2022-09-23T01:40:15.288Z,8.04
2022-09-23T01:42:47.788Z,7.99
2022-09-23T01:45:21.546Z,7.96
2022-09-23T01:47:55.219Z,7.98
2022-09-23T01:50:45.537Z,7.98
2022-09-23T01:53:19.697Z,7.91
2022-09-23T01:55:51.631Z,7.87
2022-09-23T01:58:22.290Z,7.86
2022-09-23T02:00:54.159Z,7.87
2022-09-23T02:03:27.372Z,7.86
2022-09-23T02:05:59.377Z,7.89
2022-09-23T02:08:31.926Z,7.91
2022-09-23T02:11:04.691Z,7.87
2022-09-23T02:13:40.009Z,7.86
2022-09-23T02:16:12.196Z,7.85
2022-09-23T02:18:46.210Z,7.81
2022-09-23T02:21:15.778Z,7.74
2022-09-23T02:23:45.827Z,7.73
2022-09-23T02:26:19.729Z,7.69
2022-09-23T02:28:56.037Z,7.61
2022-09-23T02:31:33.139Z,7.59
2022-09-23T02:34:10.537Z,7.60
2022-09-23T02:36:44.927Z,7.55
2022-09-23T02:39:14.466Z,7.51
2022-09-23T02:41:55.819Z,7.46
2022-09-23T02:44:24.097Z,7.41
2022-09-23T02:46:52.918Z,7.42
2022-09-23T02:49:23.872Z,7.39
2022-09-23T02:51:51.366Z,7.36
2022-09-23T02:54:20.859Z,7.33
2022-09-23T02:56:50.391Z,7.30
2022-09-23T02:59:19.565Z,7.29
2022-09-23T03:02:07.955Z,7.30
2022-09-23T03:04:50.513Z,7.28
2022-09-23T03:07:21.036Z,7.23
2022-09-23T03:09:54.673Z,7.23
2022-09-23T03:12:36.065Z,7.23
2022-09-23T03:15:16.972Z,7.24
2022-09-23T03:17:51.265Z,7.15
2022-09-23T03:20:26.159Z,7.12
2022-09-23T03:23:00.868Z,7.12
2022-09-23T03:25:33.288Z,7.15
2022-09-23T03:28:01.689Z,7.14
2022-09-23T03:30:30.852Z,7.09
2022-09-23T03:33:00.973Z,7.03
2022-09-23T03:35:33.170Z,6.98
2022-09-23T03:38:08.348Z,6.95
2022-09-23T03:40:41.929Z,6.95
2022-09-23T03:43:09.912Z,6.93
2022-09-23T03:45:36.785Z,6.91
2022-09-23T03:48:04.410Z,6.92
2022-09-23T03:50:32.614Z,6.90
2022-09-23T03:52:59.437Z,6.89
2022-09-23T03:55:26.256Z,6.86
2022-09-23T03:57:53.350Z,6.84
2022-09-23T04:00:20.359Z,6.82
2022-09-23T04:02:47.203Z,6.81
2022-09-23T04:05:14.067Z,6.79
2022-09-23T04:07:42.614Z,6.76
2022-09-23T04:10:10.205Z,6.77
2022-09-23T04:12:37.755Z,6.77
2022-09-23T04:15:05.673Z,6.73
2022-09-23T04:17:32.544Z,6.70
2022-09-23T04:19:59.391Z,6.66
2022-09-23T04:22:26.248Z,6.67
2022-09-23T04:24:54.773Z,6.67
2022-09-23T04:27:21.633Z,6.68
2022-09-23T04:29:48.504Z,6.67
2022-09-23T04:32:15.414Z,6.63
2022-09-23T04:34:43.396Z,6.63
2022-09-23T04:37:10.217Z,6.62
2022-09-23T04:39:37.101Z,6.59
2022-09-23T04:42:05.587Z,6.57
2022-09-23T04:44:33.073Z,6.54
2022-09-23T04:46:59.994Z,6.57
2022-09-23T04:49:26.952Z,6.56
2022-09-23T04:51:54.295Z,6.57
2022-09-23T04:54:21.175Z,6.57
2022-09-23T04:56:48.052Z,6.57
2022-09-23T04:59:16.537Z,6.56
2022-09-23T05:01:43.794Z,6.57
2022-09-23T05:04:13.936Z,6.65
2022-09-23T05:06:43.986Z,6.78
2022-09-23T05:09:16.624Z,6.85
2022-09-23T05:11:44.290Z,6.93
2022-09-23T05:14:11.242Z,6.96
2022-09-23T05:16:39.579Z,6.95
2022-09-23T05:19:06.717Z,6.92
2022-09-23T05:21:33.603Z,6.93
2022-09-23T05:24:00.955Z,7.02
2022-09-23T05:26:30.289Z,7.06
2022-09-23T05:28:57.188Z,7.11
2022-09-23T05:31:26.237Z,7.12
2022-09-23T05:33:57.369Z,7.14
2022-09-23T05:36:25.521Z,7.16
2022-09-23T05:38:52.723Z,7.11
2022-09-23T05:41:23.129Z,7.03
2022-09-23T05:43:51.671Z,7.04
2022-09-23T05:46:20.154Z,7.06
2022-09-23T05:48:47.625Z,7.09
2022-09-23T05:51:18.457Z,7.17
2022-09-23T05:53:46.055Z,7.29
2022-09-23T05:56:14.190Z,7.33
2022-09-23T05:58:41.179Z,7.34
2022-09-23T06:01:13.312Z,7.41
2022-09-23T06:03:40.991Z,7.52
2022-09-23T06:06:14.663Z,7.66
2022-09-23T06:08:43.041Z,7.78
2022-09-23T06:11:11.632Z,7.85
2022-09-23T06:13:39.517Z,7.87
2022-09-23T06:16:08.102Z,7.94
2022-09-23T06:18:35.706Z,8.04
2022-09-23T06:21:04.810Z,8.13
2022-09-23T06:23:31.988Z,8.22
2022-09-23T06:26:05.344Z,8.35
2022-09-23T06:28:33.898Z,8.45
2022-09-23T06:31:03.289Z,8.61
2022-09-23T06:33:36.828Z,8.81
2022-09-23T06:36:05.791Z,9.02
2022-09-23T06:38:35.788Z,9.26
2022-09-23T06:41:04.283Z,9.44
2022-09-23T06:43:31.331Z,9.62
2022-09-23T06:45:59.586Z,9.92
2022-09-23T06:48:27.409Z,10.38
2022-09-23T06:50:58.148Z,10.97
2022-09-23T06:53:25.615Z,11.64
2022-09-23T06:55:58.814Z,12.23
2022-09-23T06:58:27.645Z,12.42
2022-09-23T07:00:55.163Z,12.85
2022-09-23T07:03:22.301Z,13.04
2022-09-23T07:05:49.154Z,13.11
2022-09-23T07:08:16.462Z,13.21
2022-09-23T07:10:43.275Z,13.34
2022-09-23T07:13:14.178Z,13.57
2022-09-23T07:15:49.415Z,13.84
2022-09-23T07:18:16.424Z,14.09
2022-09-23T07:20:43.244Z,14.31
2022-09-23T07:23:10.146Z,14.33
2022-09-23T07:25:36.977Z,14.75
2022-09-23T07:28:03.877Z,14.76
2022-09-23T07:30:30.735Z,14.70
2022-09-23T07:32:59.055Z,14.82
2022-09-23T07:35:28.114Z,15.03
2022-09-23T07:37:55.002Z,15.06
2022-09-23T07:40:22.077Z,15.00
2022-09-23T07:42:48.970Z,15.04
2022-09-23T07:45:15.806Z,15.27
2022-09-23T07:47:42.722Z,15.49
2022-09-23T07:50:11.597Z,15.56
2022-09-23T07:52:39.392Z,15.75
2022-09-23T07:55:07.130Z,15.99
2022-09-23T07:57:34.133Z,16.06
2022-09-23T08:00:03.835Z,16.06
2022-09-23T08:02:38.496Z,16.25
2022-09-23T08:05:06.716Z,16.46
2022-09-23T08:07:34.981Z,16.58
2022-09-23T08:10:02.684Z,16.80
2022-09-23T08:12:31.613Z,16.91
2022-09-23T08:15:00.407Z,16.89
2022-09-23T08:17:27.484Z,16.82
2022-09-23T08:19:54.349Z,16.84
2022-09-23T08:22:21.167Z,16.82
2022-09-23T08:24:49.550Z,16.77
2022-09-23T08:27:16.526Z,17.00
2022-09-23T08:29:43.326Z,17.26
2022-09-23T08:32:10.238Z,17.45
2022-09-23T08:34:37.069Z,17.70
2022-09-23T08:37:04.126Z,18.02
2022-09-23T08:39:31.341Z,18.30
2022-09-23T08:42:11.914Z,18.23
2022-09-23T08:44:47.047Z,18.51
2022-09-23T08:47:20.252Z,18.62
2022-09-23T08:49:59.430Z,18.53
2022-09-23T08:52:33.349Z,18.87
2022-09-23T08:55:01.701Z,18.88
2022-09-23T08:57:42.406Z,18.75
2022-09-23T09:00:18.801Z,19.14
2022-09-23T09:02:45.934Z,19.28
2022-09-23T09:05:16.990Z,19.31
2022-09-23T09:07:44.650Z,19.57
2022-09-23T09:10:18.741Z,18.92
2022-09-23T09:12:50.406Z,19.49
2022-09-23T09:15:24.329Z,19.05
2022-09-23T09:18:01.193Z,19.41
2022-09-23T09:20:38.966Z,19.05
2022-09-23T09:23:15.585Z,19.56
2022-09-23T09:25:44.789Z,20.18
2022-09-23T09:28:19.111Z,20.18
2022-09-23T09:30:50.436Z,20.02
2022-09-23T09:33:18.991Z,20.18
2022-09-23T09:36:03.948Z,20.42
2022-09-23T09:38:31.850Z,20.30
2022-09-23T09:41:09.166Z,20.47
2022-09-23T09:43:44.043Z,20.80
2022-09-23T09:46:26.412Z,20.92
2022-09-23T09:48:57.942Z,20.80
2022-09-23T09:51:27.399Z,20.49
2022-09-23T09:53:56.081Z,21.12
2022-09-23T09:56:31.202Z,21.48
2022-09-23T09:59:02.007Z,21.22
2022-09-23T10:01:31.145Z,21.56
2022-09-23T10:04:00.771Z,21.81
2022-09-23T10:06:29.560Z,21.89
2022-09-23T10:09:15.267Z,20.99
2022-09-23T10:11:44.580Z,21.37
2022-09-23T10:14:17.574Z,21.83
2022-09-23T10:16:45.571Z,21.73
2022-09-23T10:19:22.106Z,21.88
2022-09-23T10:21:57.045Z,21.94
2022-09-23T10:24:26.083Z,21.74
2022-09-23T10:26:58.084Z,22.13
2022-09-23T10:29:31.037Z,22.42
2022-09-23T10:32:25.585Z,22.82
2022-09-23T10:34:55.666Z,23.13
2022-09-23T10:37:37.461Z,23.36
2022-09-23T10:40:33.811Z,23.11
2022-09-23T10:43:36.716Z,22.84
2022-09-23T10:46:26.744Z,22.75
2022-09-23T10:49:16.574Z,22.70
2022-09-23T10:51:52.129Z,22.52
2022-09-23T10:54:31.764Z,22.10
2022-09-23T10:57:27.522Z,21.70
2022-09-23T11:00:02.555Z,22.03
2022-09-23T11:02:55.454Z,21.43
2022-09-23T11:05:41.506Z,22.01
2022-09-23T11:08:27.502Z,21.98
2022-09-23T11:11:09.958Z,22.22
2022-09-23T11:13:54.153Z,22.24
2022-09-23T11:16:32.045Z,22.23
2022-09-23T11:19:12.447Z,21.52
2022-09-23T11:22:14.100Z,22.01
2022-09-23T11:24:50.164Z,22.23
2022-09-23T11:27:27.403Z,22.47
2022-09-23T11:30:03.406Z,22.23
2022-09-23T11:32:55.867Z,22.92
2022-09-23T11:35:29.477Z,23.15
2022-09-23T11:38:02.115Z,22.82
2022-09-23T11:40:33.070Z,21.95
2022-09-23T11:43:04.249Z,22.34
2022-09-23T11:45:34.641Z,22.32
2022-09-23T11:48:09.772Z,22.41
2022-09-23T11:50:42.976Z,21.61
2022-09-23T11:53:18.790Z,22.29
2022-09-23T11:55:58.027Z,22.59
2022-09-23T11:58:29.657Z,22.84
2022-09-23T12:01:01.213Z,22.05
2022-09-23T12:03:44.477Z,22.73
2022-09-23T12:06:18.631Z,23.14
2022-09-23T12:08:45.655Z,23.29
2022-09-23T12:11:25.368Z,23.12
2022-09-23T12:14:05.258Z,23.04
2022-09-23T12:16:50.723Z,22.43
2022-09-23T12:19:38.765Z,22.30
2022-09-23T12:22:25.659Z,22.69
2022-09-23T12:24:59.581Z,22.74
2022-09-23T12:27:32.618Z,22.56
2022-09-23T12:30:02.988Z,22.32
2022-09-23T12:32:30.980Z,22.46
2022-09-23T12:34:58.268Z,22.50
2022-09-23T12:37:31.678Z,22.20
2022-09-23T12:40:02.246Z,22.31
2022-09-23T12:42:31.324Z,22.69
2022-09-23T12:45:34.805Z,22.70
2022-09-23T12:48:03.244Z,22.75
2022-09-23T12:51:13.362Z,22.76
2022-09-23T12:54:01.626Z,21.98
2022-09-23T12:56:59.176Z,22.02
2022-09-23T12:59:28.209Z,21.99
2022-09-23T13:01:56.250Z,21.88
2022-09-23T13:05:01.184Z,22.03
2022-09-23T13:07:32.068Z,21.77
2022-09-23T13:10:08.964Z,22.02
2022-09-23T13:12:39.526Z,22.00
2022-09-23T13:15:17.002Z,21.54
2022-09-23T13:17:43.914Z,21.58
2022-09-23T13:20:38.283Z,21.78
2022-09-23T13:23:24.181Z,21.84
2022-09-23T13:25:55.620Z,21.53
2022-09-23T13:28:41.727Z,21.76
2022-09-23T13:31:15.960Z,21.55
2022-09-23T13:33:46.177Z,21.92
2022-09-23T13:36:16.326Z,21.66
2022-09-23T13:38:43.626Z,21.68
2022-09-23T13:41:15.231Z,21.77
2022-09-23T13:43:45.377Z,21.46
2022-09-23T13:46:16.266Z,21.32
2022-09-23T13:48:45.362Z,20.99
2022-09-23T13:51:21.722Z,21.33
2022-09-23T13:53:53.691Z,20.94
2022-09-23T13:56:24.915Z,21.11
2022-09-23T13:58:52.354Z,21.21
2022-09-23T14:01:24.486Z,21.03
2022-09-23T14:03:51.497Z,20.97
2022-09-23T14:06:18.554Z,20.95
2022-09-23T14:08:48.289Z,20.94
2022-09-23T14:11:16.574Z,21.22
2022-09-23T14:13:47.045Z,21.31
2022-09-23T14:16:16.079Z,21.26
2022-09-23T14:18:45.418Z,21.28
2022-09-23T14:21:30.251Z,21.57
2022-09-23T14:23:57.165Z,21.74
2022-09-23T14:26:24.789Z,21.48
2022-09-23T14:28:53.994Z,21.64
2022-09-23T14:31:20.983Z,21.25
2022-09-23T14:33:47.943Z,21.30
2022-09-23T14:36:36.336Z,21.34
2022-09-23T14:39:05.270Z,21.75
2022-09-23T14:41:37.156Z,21.74
2022-09-23T14:44:07.338Z,21.80
2022-09-23T14:46:37.027Z,21.61
2022-09-23T14:49:07.757Z,21.34
2022-09-23T14:51:44.600Z,20.94
2022-09-23T14:54:35.266Z,21.10
2022-09-23T14:57:05.938Z,21.16
2022-09-23T14:59:36.626Z,20.86
2022-09-23T15:02:31.430Z,20.77
2022-09-23T15:05:14.650Z,20.82
2022-09-23T15:07:44.077Z,20.87
2022-09-23T15:10:19.963Z,20.74
2022-09-23T15:12:49.094Z,20.83
2022-09-23T15:15:18.749Z,20.76
2022-09-23T15:17:46.628Z,20.68
2022-09-23T15:20:23.924Z,20.71
2022-09-23T15:22:54.086Z,20.75
2022-09-23T15:25:28.090Z,20.79
2022-09-23T15:28:01.098Z,20.74
2022-09-23T15:30:31.580Z,20.66
2022-09-23T15:32:58.590Z,20.90
2022-09-23T15:35:26.704Z,20.94
2022-09-23T15:37:58.442Z,20.86
2022-09-23T15:40:27.259Z,20.83
2022-09-23T15:42:56.388Z,20.61
2022-09-23T15:45:31.451Z,20.20
2022-09-23T15:48:03.259Z,20.42
2022-09-23T15:50:31.325Z,20.61
2022-09-23T15:52:58.326Z,20.30
2022-09-23T15:55:25.294Z,20.49
2022-09-23T15:57:52.671Z,20.52
2022-09-23T16:00:19.873Z,20.39
2022-09-23T16:02:49.398Z,20.22
2022-09-23T16:05:26.648Z,20.17
2022-09-23T16:07:53.519Z,20.21
2022-09-23T16:10:22.067Z,20.04
2022-09-23T16:12:49.948Z,19.83
2022-09-23T16:15:19.552Z,19.96
2022-09-23T16:17:47.801Z,19.98
2022-09-23T16:20:16.869Z,19.98
2022-09-23T16:22:48.296Z,19.78
2022-09-23T16:25:15.658Z,19.78
2022-09-23T16:27:42.469Z,19.70
2022-09-23T16:30:11.008Z,19.69
2022-09-23T16:32:38.242Z,19.59
2022-09-23T16:35:08.438Z,19.54
2022-09-23T16:37:35.345Z,19.64
2022-09-23T16:40:04.241Z,19.67
2022-09-23T16:42:31.220Z,19.52
2022-09-23T16:44:58.039Z,19.29
2022-09-23T16:47:24.993Z,19.35
2022-09-23T16:49:51.857Z,19.35
2022-09-23T16:52:20.098Z,19.29
2022-09-23T16:54:48.037Z,19.22
2022-09-23T16:57:15.141Z,19.05
2022-09-23T17:00:00.413Z,18.99
2022-09-23T17:02:45.810Z,18.93
2022-09-23T17:05:16.390Z,18.67
2022-09-23T17:07:44.807Z,18.59
2022-09-23T17:10:12.015Z,18.63
2022-09-23T17:12:38.858Z,18.58
2022-09-23T17:15:07.432Z,18.47
2022-09-23T17:17:37.058Z,18.35
2022-09-23T17:20:05.823Z,18.27
2022-09-23T17:22:33.617Z,18.15
2022-09-23T17:25:03.869Z,18.02
2022-09-23T17:27:31.993Z,17.79
2022-09-23T17:29:59.120Z,17.79
2022-09-23T17:32:26.774Z,17.69
2022-09-23T17:34:53.606Z,17.50
2022-09-23T17:37:20.418Z,17.22
2022-09-23T17:39:47.291Z,17.05
2022-09-23T17:42:15.706Z,16.99
2022-09-23T17:44:42.619Z,17.04
2022-09-23T17:47:10.571Z,17.05
2022-09-23T17:49:37.392Z,16.95
2022-09-23T17:52:05.779Z,16.83
2022-09-23T17:54:32.772Z,16.75
2022-09-23T17:56:59.962Z,16.71
2022-09-23T17:59:28.468Z,16.75
2022-09-23T18:01:55.408Z,16.74
2022-09-23T18:04:22.401Z,16.65
2022-09-23T18:06:49.276Z,16.48
2022-09-23T18:09:16.106Z,16.32
2022-09-23T18:11:45.094Z,16.25
2022-09-23T18:14:15.560Z,16.18
2022-09-23T18:16:45.820Z,16.15
2022-09-23T18:19:14.583Z,16.10
2022-09-23T18:21:43.304Z,16.05
2022-09-23T18:24:31.187Z,16.04
2022-09-23T18:26:59.886Z,16.07
2022-09-23T18:29:26.996Z,16.06
2022-09-23T18:31:55.408Z,16.11
2022-09-23T18:34:23.673Z,16.11
2022-09-23T18:36:50.852Z,16.04
2022-09-23T18:39:18.031Z,16.00
2022-09-23T18:41:44.906Z,15.94
2022-09-23T18:44:11.822Z,15.88
2022-09-23T18:46:38.763Z,15.82
2022-09-23T18:49:25.651Z,15.72
2022-09-23T18:51:55.600Z,15.62
2022-09-23T18:54:23.168Z,15.58
2022-09-23T18:56:52.533Z,15.60
2022-09-23T18:59:21.306Z,15.55
2022-09-23T19:01:50.187Z,15.51
2022-09-23T19:04:20.777Z,15.48
2022-09-23T19:06:48.061Z,15.40
2022-09-23T19:09:15.961Z,15.39
2022-09-23T19:11:43.012Z,15.37
2022-09-23T19:14:11.491Z,15.36
2022-09-23T19:16:39.615Z,15.43
2022-09-23T19:19:07.135Z,15.49
2022-09-23T19:21:35.717Z,15.53
2022-09-23T19:24:05.080Z,15.59
2022-09-23T19:26:34.858Z,15.61
2022-09-23T19:29:03.245Z,15.57
2022-09-23T19:31:33.433Z,15.61
2022-09-23T19:34:02.402Z,15.63
2022-09-23T19:36:30.967Z,15.68
2022-09-23T19:39:02.905Z,15.66
2022-09-23T19:41:35.445Z,15.57
2022-09-23T19:44:03.832Z,15.56
2022-09-23T19:46:32.464Z,15.40
2022-09-23T19:49:00.486Z,15.33
2022-09-23T19:51:28.329Z,15.26
2022-09-23T19:53:55.137Z,15.12
2022-09-23T19:56:23.514Z,15.02
2022-09-23T19:58:54.261Z,14.90
2022-09-23T20:01:21.808Z,14.83
2022-09-23T20:03:49.487Z,14.93
2022-09-23T20:06:17.567Z,14.94
2022-09-23T20:08:45.022Z,14.95
2022-09-23T20:11:13.715Z,14.92
2022-09-23T20:13:49.602Z,14.86
2022-09-23T20:16:18.136Z,14.87
2022-09-23T20:18:46.791Z,14.80
2022-09-23T20:21:15.425Z,14.76
2022-09-23T20:23:42.707Z,14.68
2022-09-23T20:26:28.938Z,14.68
2022-09-23T20:29:00.931Z,14.65
2022-09-23T20:31:28.822Z,14.55
2022-09-23T20:33:58.501Z,14.43
2022-09-23T20:36:25.824Z,14.19
2022-09-23T20:38:56.427Z,14.11
2022-09-23T20:41:23.421Z,14.26
2022-09-23T20:43:53.443Z,14.32
2022-09-23T20:46:24.890Z,14.30
2022-09-23T20:48:52.168Z,14.28
2022-09-23T20:51:18.979Z,14.30
2022-09-23T20:53:48.485Z,14.26
2022-09-23T20:56:16.496Z,14.24
2022-09-23T20:58:44.575Z,14.28
2022-09-23T21:01:11.907Z,14.25
2022-09-23T21:03:41.875Z,14.20
2022-09-23T21:06:10.781Z,14.20
2022-09-23T21:08:38.018Z,14.18
2022-09-23T21:11:08.067Z,14.15
2022-09-23T21:13:35.321Z,14.11
2022-09-23T21:16:03.070Z,14.07
2022-09-23T21:18:30.145Z,14.05
2022-09-23T21:20:59.730Z,14.08
2022-09-23T21:23:27.537Z,14.09
2022-09-23T21:26:00.337Z,14.09
2022-09-23T21:28:30.963Z,14.06
2022-09-23T21:30:58.731Z,14.05
2022-09-23T21:33:25.902Z,13.99
2022-09-23T21:35:54.447Z,13.96
2022-09-23T21:38:23.124Z,13.82
2022-09-23T21:40:55.791Z,13.68
2022-09-23T21:43:23.595Z,13.60
2022-09-23T21:45:56.997Z,13.56
2022-09-23T21:48:24.333Z,13.54
2022-09-23T21:50:54.960Z,13.54
2022-09-23T21:53:23.888Z,13.56
2022-09-23T21:55:51.148Z,13.60
2022-09-23T21:58:18.054Z,13.62
2022-09-23T22:00:45.253Z,13.47
2022-09-23T22:03:12.374Z,13.36
2022-09-23T22:05:44.015Z,13.34
2022-09-23T22:08:10.740Z,13.24
2022-09-23T22:10:38.988Z,13.10
2022-09-23T22:13:12.543Z,12.98
2022-09-23T22:15:39.867Z,12.91
2022-09-23T22:18:06.764Z,12.87
2022-09-23T22:20:34.222Z,12.76
2022-09-23T22:23:01.128Z,12.48
2022-09-23T22:25:28.860Z,12.59
2022-09-23T22:28:15.860Z,12.73
2022-09-23T22:31:01.038Z,12.73
2022-09-23T22:33:27.954Z,12.75
2022-09-23T22:36:01.741Z,12.81
2022-09-23T22:38:28.805Z,12.78
2022-09-23T22:40:55.735Z,12.77
2022-09-23T22:43:24.004Z,12.65
2022-09-23T22:45:51.606Z,12.49
2022-09-23T22:48:19.894Z,12.48
2022-09-23T22:50:46.803Z,12.48
2022-09-23T22:53:13.959Z,12.58
2022-09-23T22:55:42.117Z,12.62
2022-09-23T22:58:30.768Z,12.46
2022-09-23T23:00:58.228Z,12.46
2022-09-23T23:03:27.047Z,12.50
2022-09-23T23:05:57.620Z,12.48
2022-09-23T23:08:24.672Z,12.48
2022-09-23T23:10:51.648Z,12.52
2022-09-23T23:13:19.224Z,12.53
2022-09-23T23:15:46.109Z,12.48
2022-09-23T23:18:14.909Z,12.43
2022-09-23T23:20:41.825Z,12.46
2022-09-23T23:23:08.672Z,12.46
2022-09-23T23:25:35.483Z,12.48
2022-09-23T23:28:05.590Z,12.44
2022-09-23T23:30:33.603Z,12.38
2022-09-23T23:33:00.582Z,12.28
2022-09-23T23:35:28.841Z,12.25
2022-09-23T23:37:55.768Z,12.20
2022-09-23T23:40:22.842Z,12.09
2022-09-23T23:42:49.767Z,12.03
2022-09-23T23:45:17.429Z,12.01
2022-09-23T23:47:44.621Z,12.04
2022-09-23T23:50:11.495Z,12.12
2022-09-23T23:52:39.789Z,12.07
2022-09-23T23:55:07.112Z,12.01
2022-09-23T23:57:33.973Z,11.99
